createdAt,value
2018-03-27T00:02:14.115Z,69.62
2018-03-27T00:04:41.766Z,69.04
2018-03-27T00:07:09.365Z,68.87
2018-03-27T00:09:36.961Z,68.67
2018-03-27T00:12:04.612Z,68.59
2018-03-27T00:14:32.205Z,68.37
2018-03-27T00:16:59.789Z,68.57
2018-03-27T00:19:27.403Z,68.77
2018-03-27T00:21:55.080Z,69.13
2018-03-27T00:24:22.700Z,69.42
2018-03-27T00:27:00.761Z,69.48
2018-03-27T00:29:40.147Z,69.41
2018-03-27T00:32:19.646Z,69.52
2018-03-27T00:34:59.101Z,70.20
2018-03-27T00:37:38.596Z,69.98
2018-03-27T00:40:18.032Z,69.93
2018-03-27T00:42:49.693Z,70.29
2018-03-27T00:45:17.291Z,70.80
2018-03-27T00:47:44.883Z,70.71
2018-03-27T00:50:12.516Z,70.79
2018-03-27T00:52:40.099Z,71.50
2018-03-27T00:55:07.704Z,69.91
2018-03-27T00:57:35.329Z,70.87
2018-03-27T01:00:02.942Z,70.00
2018-03-27T01:02:30.544Z,69.63
2018-03-27T01:05:12.795Z,69.05
2018-03-27T01:07:40.414Z,70.12
2018-03-27T01:10:08.033Z,70.13
2018-03-27T01:12:35.651Z,70.98
2018-03-27T01:15:03.251Z,71.14
2018-03-27T01:17:30.863Z,71.19
2018-03-27T01:19:58.496Z,71.12
2018-03-27T01:22:26.095Z,70.35
2018-03-27T01:24:53.778Z,70.66
2018-03-27T01:27:21.414Z,69.98
2018-03-27T01:29:49.019Z,69.35
2018-03-27T01:32:16.626Z,69.31
2018-03-27T01:34:44.260Z,69.25
2018-03-27T01:37:11.855Z,69.18
2018-03-27T01:39:39.456Z,68.99
2018-03-27T01:42:07.080Z,69.21
2018-03-27T01:44:34.675Z,69.49
2018-03-27T01:47:02.278Z,69.63
2018-03-27T01:49:29.938Z,70.73
2018-03-27T01:51:57.540Z,70.63
2018-03-27T01:54:25.154Z,70.36
2018-03-27T01:56:52.794Z,70.63
2018-03-27T01:59:20.390Z,70.58
2018-03-27T02:01:47.971Z,69.66
2018-03-27T02:04:15.867Z,70.42
2018-03-27T02:06:43.467Z,70.33
2018-03-27T02:09:11.064Z,70.81
2018-03-27T02:11:44.244Z,70.18
2018-03-27T02:14:17.315Z,70.44
2018-03-27T02:16:50.494Z,70.32
2018-03-27T02:19:23.511Z,70.17
2018-03-27T02:21:50.560Z,70.32
2018-03-27T02:24:19.186Z,70.57
2018-03-27T02:26:46.783Z,70.40
2018-03-27T02:29:14.373Z,70.14
2018-03-27T02:31:42.019Z,70.18
2018-03-27T02:34:09.617Z,70.43
2018-03-27T02:36:37.220Z,70.19
2018-03-27T02:39:04.854Z,69.88
2018-03-27T02:41:32.459Z,69.55
2018-03-27T02:44:00.059Z,69.37
2018-03-27T02:46:27.698Z,69.64
2018-03-27T02:48:55.310Z,69.32
2018-03-27T02:51:22.928Z,69.84
2018-03-27T02:53:50.676Z,69.74
2018-03-27T02:56:18.300Z,70.02
2018-03-27T02:58:45.973Z,70.62
2018-03-27T03:01:13.607Z,70.45
2018-03-27T03:03:41.203Z,70.33
2018-03-27T03:06:08.804Z,70.60
2018-03-27T03:08:36.424Z,71.15
2018-03-27T03:11:04.021Z,71.05
2018-03-27T03:13:32.432Z,71.34
2018-03-27T03:16:00.403Z,71.10
2018-03-27T03:18:27.993Z,71.35
2018-03-27T03:20:55.580Z,71.88
2018-03-27T03:23:23.195Z,71.82
2018-03-27T03:25:50.798Z,71.79
2018-03-27T03:28:18.428Z,71.48
2018-03-27T03:30:46.070Z,71.00
2018-03-27T03:33:13.655Z,71.15
2018-03-27T03:35:41.252Z,71.45
2018-03-27T03:38:08.883Z,72.24
2018-03-27T03:40:36.488Z,73.77
2018-03-27T03:43:04.090Z,73.85
2018-03-27T03:45:31.712Z,74.07
2018-03-27T03:47:59.311Z,74.13
2018-03-27T03:50:26.901Z,73.35
2018-03-27T03:52:54.532Z,72.80
2018-03-27T03:55:22.134Z,73.85
2018-03-27T03:57:49.756Z,72.43
2018-03-27T04:00:17.391Z,72.47
2018-03-27T04:02:44.987Z,71.43
2018-03-27T04:05:12.581Z,69.26
2018-03-27T04:07:40.549Z,70.65
2018-03-27T04:10:08.146Z,71.20
2018-03-27T04:12:35.747Z,72.40
2018-03-27T04:15:03.367Z,72.38
2018-03-27T04:17:30.956Z,72.08
2018-03-27T04:19:58.553Z,71.78
2018-03-27T04:22:26.195Z,71.51
2018-03-27T04:24:53.805Z,71.47
2018-03-27T04:27:21.398Z,71.45
2018-03-27T04:29:49.038Z,70.91
2018-03-27T04:32:16.648Z,70.30
2018-03-27T04:34:44.245Z,69.46
2018-03-27T04:37:11.865Z,69.52
2018-03-27T04:39:39.453Z,69.68
2018-03-27T04:42:07.039Z,69.78
2018-03-27T04:44:34.692Z,69.83
2018-03-27T04:47:02.303Z,69.74
2018-03-27T04:49:29.901Z,69.64
2018-03-27T04:51:57.538Z,69.59
2018-03-27T04:54:25.141Z,70.62
2018-03-27T04:56:52.740Z,70.13
2018-03-27T04:59:20.356Z,70.63
2018-03-27T05:01:47.947Z,70.51
2018-03-27T05:04:15.536Z,70.18
2018-03-27T05:06:43.159Z,69.87
2018-03-27T05:09:10.755Z,69.37
2018-03-27T05:11:38.359Z,70.16
2018-03-27T05:14:05.976Z,70.42
2018-03-27T05:16:33.607Z,70.28
2018-03-27T05:19:01.197Z,70.62
2018-03-27T05:21:28.828Z,70.45
2018-03-27T05:23:56.493Z,70.31
2018-03-27T05:26:24.121Z,70.79
2018-03-27T05:28:51.754Z,71.10
2018-03-27T05:31:19.358Z,70.94
2018-03-27T05:33:46.946Z,71.01
2018-03-27T05:36:14.580Z,70.76
2018-03-27T05:38:42.202Z,70.71
2018-03-27T05:41:09.781Z,71.48
2018-03-27T05:43:37.404Z,71.58
2018-03-27T05:46:04.993Z,71.37
2018-03-27T05:48:32.579Z,71.67
2018-03-27T05:51:00.209Z,71.38
2018-03-27T05:53:27.811Z,71.60
2018-03-27T05:55:55.483Z,71.25
2018-03-27T05:58:23.064Z,71.50
2018-03-27T06:00:50.657Z,70.75
2018-03-27T06:03:18.245Z,71.01
2018-03-27T06:05:45.880Z,70.93
2018-03-27T06:08:13.477Z,70.86
2018-03-27T06:10:41.128Z,70.92
2018-03-27T06:13:09.034Z,70.98
2018-03-27T06:15:36.637Z,71.45
2018-03-27T06:18:04.242Z,72.07
2018-03-27T06:20:31.888Z,72.27
2018-03-27T06:22:59.483Z,71.85
2018-03-27T06:25:27.083Z,71.92
2018-03-27T06:27:54.729Z,72.17
2018-03-27T06:30:22.354Z,72.56
2018-03-27T06:32:49.944Z,72.54
2018-03-27T06:35:17.599Z,72.35
2018-03-27T06:37:45.212Z,72.68
2018-03-27T06:40:12.811Z,72.65
2018-03-27T06:42:40.441Z,72.86
2018-03-27T06:45:08.048Z,72.84
2018-03-27T06:47:35.689Z,73.08
2018-03-27T06:50:03.346Z,73.22
2018-03-27T06:52:30.942Z,73.48
2018-03-27T06:54:58.533Z,73.57
2018-03-27T06:57:26.424Z,73.36
2018-03-27T06:59:54.033Z,73.35
2018-03-27T07:02:21.651Z,73.45
2018-03-27T07:04:49.639Z,73.09
2018-03-27T07:07:17.236Z,72.72
2018-03-27T07:09:44.827Z,72.49
2018-03-27T07:12:12.459Z,72.58
2018-03-27T07:14:40.085Z,72.41
2018-03-27T07:17:07.694Z,72.79
2018-03-27T07:19:35.343Z,72.20
2018-03-27T07:22:02.968Z,72.75
2018-03-27T07:24:30.559Z,72.34
2018-03-27T07:26:58.268Z,71.95
2018-03-27T07:29:25.802Z,71.96
2018-03-27T07:31:53.395Z,69.94
2018-03-27T07:34:21.020Z,69.66
2018-03-27T07:36:48.621Z,69.05
2018-03-27T07:39:16.218Z,68.62
2018-03-27T07:41:43.851Z,69.07
2018-03-27T07:44:11.510Z,69.59
2018-03-27T07:46:39.106Z,68.36
2018-03-27T07:49:06.759Z,68.33
2018-03-27T07:51:34.360Z,67.86
2018-03-27T07:54:01.960Z,66.65
2018-03-27T07:56:29.590Z,67.28
2018-03-27T07:58:57.188Z,66.74
2018-03-27T08:01:24.780Z,65.75
2018-03-27T08:03:52.400Z,64.21
2018-03-27T08:06:20.074Z,64.96
2018-03-27T08:08:47.716Z,65.42
2018-03-27T08:11:15.422Z,63.98
2018-03-27T08:13:43.010Z,64.28
2018-03-27T08:16:10.713Z,63.55
2018-03-27T08:18:38.408Z,63.66
2018-03-27T08:21:06.232Z,63.26
2018-03-27T08:23:33.843Z,65.44
2018-03-27T08:26:03.271Z,64.83
2018-03-27T08:28:30.876Z,65.30
2018-03-27T08:30:58.467Z,64.94
2018-03-27T08:33:26.083Z,65.02
2018-03-27T08:35:53.673Z,64.69
2018-03-27T08:38:21.298Z,64.66
2018-03-27T08:40:48.898Z,63.83
2018-03-27T08:43:16.712Z,62.35
2018-03-27T08:45:44.309Z,62.25
2018-03-27T08:48:11.910Z,62.30
2018-03-27T08:50:39.536Z,61.28
2018-03-27T08:53:07.245Z,59.67
2018-03-27T08:55:34.868Z,59.86
2018-03-27T08:58:02.473Z,59.28
2018-03-27T09:00:30.117Z,59.02
2018-03-27T09:02:57.735Z,58.26
2018-03-27T09:05:25.406Z,56.22
2018-03-27T09:07:52.970Z,56.01
2018-03-27T09:10:20.832Z,55.32
2018-03-27T09:12:49.512Z,55.80
2018-03-27T09:15:17.468Z,54.29
2018-03-27T09:17:45.346Z,52.98
2018-03-27T09:20:12.963Z,53.62
2018-03-27T09:22:40.561Z,53.71
2018-03-27T09:25:08.202Z,53.78
2018-03-27T09:27:38.884Z,53.60
2018-03-27T09:30:06.742Z,54.14
2018-03-27T09:32:34.328Z,54.27
2018-03-27T09:35:02.158Z,53.35
2018-03-27T09:37:29.747Z,51.36
2018-03-27T09:39:57.353Z,50.98
2018-03-27T09:42:24.971Z,50.91
2018-03-27T09:44:52.571Z,52.00
2018-03-27T09:47:20.182Z,51.49
2018-03-27T09:49:47.779Z,50.75
2018-03-27T09:52:15.516Z,50.69
2018-03-27T09:54:43.121Z,50.33
2018-03-27T09:57:10.715Z,50.33
2018-03-27T09:59:38.333Z,49.30
2018-03-27T10:02:06.621Z,49.50
2018-03-27T10:04:34.251Z,48.83
2018-03-27T10:07:01.894Z,49.45
2018-03-27T10:09:29.535Z,49.06
2018-03-27T10:11:57.131Z,50.68
2018-03-27T10:14:24.719Z,51.20
2018-03-27T10:16:52.328Z,50.83
2018-03-27T10:19:19.928Z,50.81
2018-03-27T10:21:47.580Z,51.81
2018-03-27T10:24:15.170Z,50.91
2018-03-27T10:26:42.762Z,50.12
2018-03-27T10:29:10.371Z,50.04
2018-03-27T10:31:37.983Z,51.39
2018-03-27T10:34:05.596Z,50.89
2018-03-27T10:36:33.193Z,50.22
2018-03-27T10:39:00.845Z,50.00
2018-03-27T10:41:28.435Z,46.65
2018-03-27T10:43:56.025Z,47.29
2018-03-27T10:46:23.645Z,47.93
2018-03-27T10:48:51.244Z,47.05
2018-03-27T10:51:18.866Z,46.61
2018-03-27T10:53:46.474Z,49.03
2018-03-27T10:56:14.516Z,47.92
2018-03-27T10:58:42.199Z,48.67
2018-03-27T11:01:09.796Z,48.46
2018-03-27T11:03:37.420Z,48.47
2018-03-27T11:06:05.021Z,48.92
2018-03-27T11:08:32.838Z,47.91
2018-03-27T11:11:00.446Z,47.77
2018-03-27T11:13:28.080Z,47.26
2018-03-27T11:15:55.680Z,47.08
2018-03-27T11:18:23.284Z,45.73
2018-03-27T11:20:50.911Z,46.22
2018-03-27T11:23:18.531Z,46.35
2018-03-27T11:25:46.156Z,45.79
2018-03-27T11:28:13.769Z,46.23
2018-03-27T11:30:41.567Z,46.78
2018-03-27T11:33:09.170Z,45.63
2018-03-27T11:35:36.768Z,45.90
2018-03-27T11:38:04.400Z,46.55
2018-03-27T11:40:32.003Z,45.08
2018-03-27T11:42:59.637Z,45.03
2018-03-27T11:45:27.231Z,45.31
2018-03-27T11:47:55.099Z,45.38
2018-03-27T11:50:22.696Z,45.94
2018-03-27T11:52:50.296Z,45.84
2018-03-27T11:55:17.927Z,45.46
2018-03-27T11:57:46.294Z,45.88
2018-03-27T12:00:13.927Z,45.52
2018-03-27T12:02:41.684Z,45.34
2018-03-27T12:05:10.081Z,45.88
2018-03-27T12:07:37.687Z,44.83
2018-03-27T12:10:05.283Z,45.76
2018-03-27T12:12:32.965Z,43.46
2018-03-27T12:15:00.627Z,44.20
2018-03-27T12:17:28.263Z,43.85
2018-03-27T12:19:55.890Z,43.29
2018-03-27T12:22:23.722Z,44.59
2018-03-27T12:24:51.380Z,42.40
2018-03-27T12:27:18.944Z,41.93
2018-03-27T12:29:46.605Z,40.73
2018-03-27T12:32:14.207Z,39.36
2018-03-27T12:34:41.841Z,39.02
2018-03-27T12:37:09.440Z,41.34
2018-03-27T12:39:37.160Z,41.19
2018-03-27T12:42:04.813Z,39.42
2018-03-27T12:44:32.406Z,37.98
2018-03-27T12:47:01.560Z,39.27
2018-03-27T12:49:29.154Z,38.30
2018-03-27T12:51:56.850Z,36.23
2018-03-27T12:54:24.450Z,36.56
2018-03-27T12:56:52.420Z,37.00
2018-03-27T12:59:20.021Z,35.56
2018-03-27T13:01:47.610Z,34.63
2018-03-27T13:04:15.232Z,33.53
2018-03-27T13:06:42.823Z,33.43
2018-03-27T13:09:10.437Z,32.61
2018-03-27T13:11:38.108Z,32.61
2018-03-27T13:14:05.928Z,33.33
2018-03-27T13:16:33.598Z,33.92
2018-03-27T13:19:01.711Z,34.81
2018-03-27T13:21:29.327Z,34.65
2018-03-27T13:23:56.922Z,34.82
2018-03-27T13:26:24.566Z,35.53
2018-03-27T13:28:52.187Z,35.51
2018-03-27T13:31:20.183Z,33.88
2018-03-27T13:33:47.781Z,33.98
2018-03-27T13:36:15.376Z,35.34
2018-03-27T13:38:43.712Z,36.45
2018-03-27T13:41:11.312Z,37.99
2018-03-27T13:43:40.036Z,38.99
2018-03-27T13:46:07.643Z,39.99
2018-03-27T13:48:35.247Z,39.26
2018-03-27T13:51:02.884Z,40.10
2018-03-27T13:53:30.524Z,40.37
2018-03-27T13:55:58.124Z,40.52
2018-03-27T13:58:25.724Z,40.62
2018-03-27T14:00:53.741Z,39.82
2018-03-27T14:03:21.345Z,39.35
2018-03-27T14:05:48.939Z,39.10
2018-03-27T14:08:16.687Z,39.86
2018-03-27T14:10:44.347Z,37.31
2018-03-27T14:13:12.193Z,37.90
2018-03-27T14:15:39.784Z,38.13
2018-03-27T14:18:07.531Z,38.92
2018-03-27T14:20:35.185Z,38.80
2018-03-27T14:23:02.793Z,37.92
2018-03-27T14:25:30.410Z,39.38
2018-03-27T14:27:58.010Z,40.19
2018-03-27T14:30:25.712Z,40.05
2018-03-27T14:32:53.316Z,40.17
2018-03-27T14:35:21.189Z,40.59
2018-03-27T14:37:48.785Z,40.09
2018-03-27T14:40:18.143Z,40.63
2018-03-27T14:42:45.780Z,41.01
2018-03-27T14:45:13.388Z,41.91
2018-03-27T14:47:41.016Z,40.75
2018-03-27T14:50:08.607Z,40.78
2018-03-27T14:52:37.160Z,42.14
2018-03-27T14:55:04.756Z,41.86
2018-03-27T14:57:32.424Z,41.81
2018-03-27T15:00:00.156Z,41.61
2018-03-27T15:02:27.878Z,41.91
2018-03-27T15:04:55.553Z,41.94
2018-03-27T15:07:23.114Z,42.33
2018-03-27T15:09:50.899Z,41.80
2018-03-27T15:12:18.521Z,42.65
2018-03-27T15:14:46.117Z,42.53
2018-03-27T15:17:13.751Z,42.24
2018-03-27T15:19:41.347Z,42.86
2018-03-27T15:22:08.964Z,45.69
2018-03-27T15:24:36.664Z,42.61
2018-03-27T15:27:04.319Z,42.15
2018-03-27T15:29:31.910Z,42.50
2018-03-27T15:32:00.173Z,42.02
2018-03-27T15:34:27.823Z,42.32
2018-03-27T15:36:55.467Z,41.38
2018-03-27T15:39:23.100Z,42.20
2018-03-27T15:41:50.700Z,41.79
2018-03-27T15:44:18.349Z,41.88
2018-03-27T15:46:45.944Z,40.74
2018-03-27T15:49:13.541Z,41.97
2018-03-27T15:51:41.162Z,41.49
2018-03-27T15:54:11.820Z,41.46
2018-03-27T15:56:39.444Z,42.59
2018-03-27T15:59:07.047Z,42.38
2018-03-27T16:01:34.884Z,42.57
2018-03-27T16:04:02.898Z,42.90
2018-03-27T16:06:30.547Z,43.58
2018-03-27T16:08:58.552Z,43.10
2018-03-27T16:11:26.377Z,42.96
2018-03-27T16:13:55.294Z,42.94
2018-03-27T16:16:25.516Z,43.06
2018-03-27T16:18:54.083Z,43.02
2018-03-27T16:21:21.677Z,43.58
2018-03-27T16:23:49.353Z,42.63
2018-03-27T16:26:16.967Z,42.95
2018-03-27T16:28:44.563Z,43.52
2018-03-27T16:31:12.374Z,48.85
2018-03-27T16:33:39.975Z,43.91
2018-03-27T16:36:07.620Z,43.29
2018-03-27T16:38:36.182Z,42.95
2018-03-27T16:41:03.772Z,43.21
2018-03-27T16:43:31.392Z,43.59
2018-03-27T16:45:59.000Z,43.97
2018-03-27T16:48:28.854Z,43.69
2018-03-27T16:50:56.453Z,43.94
2018-03-27T16:53:24.070Z,44.13
2018-03-27T16:55:51.972Z,43.80
2018-03-27T16:58:19.939Z,44.61
2018-03-27T17:00:47.568Z,43.46
2018-03-27T17:03:15.166Z,43.49
2018-03-27T17:05:42.799Z,43.83
2018-03-27T17:08:10.392Z,43.35
2018-03-27T17:10:38.246Z,44.15
2018-03-27T17:13:05.840Z,43.59
2018-03-27T17:15:33.459Z,43.35
2018-03-27T17:18:01.080Z,43.07
2018-03-27T17:20:28.676Z,43.19
2018-03-27T17:22:56.300Z,43.67
2018-03-27T17:25:23.909Z,43.05
2018-03-27T17:27:51.850Z,44.29
2018-03-27T17:30:19.477Z,43.72
2018-03-27T17:32:47.067Z,44.93
2018-03-27T17:35:14.685Z,45.37
2018-03-27T17:37:42.333Z,45.50
2018-03-27T17:40:09.956Z,44.87
2018-03-27T17:42:37.554Z,45.29
2018-03-27T17:45:05.421Z,45.81
2018-03-27T17:47:33.023Z,45.37
2018-03-27T17:50:00.635Z,45.70
2018-03-27T17:52:28.276Z,45.65
2018-03-27T17:54:55.888Z,45.56
2018-03-27T17:57:23.511Z,46.27
2018-03-27T17:59:51.115Z,46.01
2018-03-27T18:02:18.976Z,45.88
2018-03-27T18:04:46.571Z,46.22
2018-03-27T18:07:14.185Z,46.58
2018-03-27T18:09:41.807Z,46.79
2018-03-27T18:12:09.408Z,46.91
2018-03-27T18:14:37.059Z,47.13
2018-03-27T18:17:04.655Z,47.36
2018-03-27T18:19:32.504Z,48.76
2018-03-27T18:22:00.104Z,49.12
2018-03-27T18:24:27.698Z,48.90
2018-03-27T18:26:55.312Z,48.47
2018-03-27T18:29:22.912Z,48.42
2018-03-27T18:31:50.538Z,48.93
2018-03-27T18:34:18.153Z,49.26
2018-03-27T18:36:45.908Z,49.01
2018-03-27T18:39:13.499Z,49.34
2018-03-27T18:41:41.087Z,49.60
2018-03-27T18:44:08.708Z,50.06
2018-03-27T18:46:37.040Z,50.00
2018-03-27T18:49:04.701Z,50.14
2018-03-27T18:51:32.295Z,50.42
2018-03-27T18:53:59.942Z,50.81
2018-03-27T18:56:27.537Z,51.06
2018-03-27T18:58:55.131Z,50.97
2018-03-27T19:01:22.744Z,51.27
2018-03-27T19:03:50.347Z,51.28
2018-03-27T19:06:18.128Z,51.14
2018-03-27T19:08:45.723Z,52.35
2018-03-27T19:11:13.603Z,53.16
2018-03-27T19:13:41.204Z,53.70
2018-03-27T19:16:08.807Z,52.04
2018-03-27T19:18:36.421Z,52.29
2018-03-27T19:21:04.028Z,53.72
2018-03-27T19:23:31.669Z,52.78
2018-03-27T19:25:59.276Z,52.95
2018-03-27T19:28:27.280Z,52.47
2018-03-27T19:30:54.943Z,52.42
2018-03-27T19:33:22.504Z,51.95
2018-03-27T19:35:50.128Z,51.62
2018-03-27T19:38:17.715Z,51.91
2018-03-27T19:40:45.348Z,51.47
2018-03-27T19:43:13.119Z,51.30
2018-03-27T19:45:41.077Z,51.60
2018-03-27T19:48:08.677Z,51.49
2018-03-27T19:50:36.276Z,51.62
2018-03-27T19:53:03.897Z,51.66
2018-03-27T19:55:31.489Z,52.23
2018-03-27T19:57:59.285Z,52.05
2018-03-27T20:00:26.880Z,51.61
2018-03-27T20:02:54.472Z,51.35
2018-03-27T20:05:22.098Z,51.51
2018-03-27T20:07:49.696Z,51.57
2018-03-27T20:10:17.319Z,51.18
2018-03-27T20:12:44.919Z,51.59
2018-03-27T20:15:12.927Z,51.69
2018-03-27T20:17:40.537Z,51.67
2018-03-27T20:20:08.140Z,51.96
2018-03-27T20:22:35.756Z,51.99
2018-03-27T20:25:03.361Z,52.27
2018-03-27T20:27:30.972Z,52.32
2018-03-27T20:29:58.590Z,53.00
2018-03-27T20:32:26.448Z,52.75
2018-03-27T20:35:03.986Z,52.55
2018-03-27T20:37:31.926Z,52.20
2018-03-27T20:39:59.523Z,52.32
2018-03-27T20:42:27.115Z,52.65
2018-03-27T20:44:54.724Z,52.63
2018-03-27T20:47:22.321Z,53.12
2018-03-27T20:49:49.933Z,53.78
2018-03-27T20:52:17.520Z,53.56
2018-03-27T20:54:45.164Z,53.13
2018-03-27T20:57:12.763Z,53.06
2018-03-27T20:59:40.359Z,52.92
2018-03-27T21:02:07.970Z,53.25
2018-03-27T21:04:35.570Z,53.48
2018-03-27T21:07:03.195Z,53.61
2018-03-27T21:09:30.783Z,53.84
2018-03-27T21:11:58.432Z,54.20
2018-03-27T21:14:26.036Z,54.13
2018-03-27T21:16:53.641Z,54.63
2018-03-27T21:19:21.287Z,54.92
2018-03-27T21:21:48.879Z,54.86
2018-03-27T21:24:16.496Z,55.26
2018-03-27T21:26:44.094Z,55.25
2018-03-27T21:29:11.847Z,54.93
2018-03-27T21:31:39.445Z,55.20
2018-03-27T21:34:07.032Z,55.52
2018-03-27T21:36:34.635Z,55.69
2018-03-27T21:39:02.245Z,55.44
2018-03-27T21:41:29.869Z,55.02
2018-03-27T21:43:57.459Z,55.27
2018-03-27T21:46:25.200Z,54.38
2018-03-27T21:48:52.804Z,54.69
2018-03-27T21:51:20.422Z,55.09
2018-03-27T21:53:48.039Z,55.02
2018-03-27T21:56:15.655Z,56.15
2018-03-27T21:58:43.337Z,55.24
2018-03-27T22:01:10.943Z,54.41
2018-03-27T22:03:40.239Z,55.07
2018-03-27T22:06:07.841Z,54.91
2018-03-27T22:08:35.428Z,55.03
2018-03-27T22:11:03.042Z,55.70
2018-03-27T22:13:30.652Z,55.47
2018-03-27T22:15:58.272Z,55.85
2018-03-27T22:18:25.864Z,56.19
2018-03-27T22:20:53.662Z,56.04
2018-03-27T22:23:21.270Z,56.49
2018-03-27T22:25:48.955Z,56.22
2018-03-27T22:28:16.579Z,56.18
2018-03-27T22:30:44.182Z,56.99
2018-03-27T22:33:11.830Z,56.71
2018-03-27T22:35:39.438Z,56.92
2018-03-27T22:38:07.078Z,57.37
2018-03-27T22:40:34.676Z,57.91
2018-03-27T22:43:02.271Z,57.74
2018-03-27T22:45:29.910Z,58.42
2018-03-27T22:47:57.508Z,59.38
2018-03-27T22:50:25.132Z,58.46
2018-03-27T22:52:52.721Z,59.25
2018-03-27T22:55:20.599Z,59.71
2018-03-27T22:57:48.194Z,58.31
2018-03-27T23:00:22.588Z,58.97
2018-03-27T23:02:50.177Z,59.16
2018-03-27T23:05:17.769Z,59.21
2018-03-27T23:07:45.399Z,59.59
2018-03-27T23:10:12.996Z,59.39
2018-03-27T23:12:40.613Z,60.07
2018-03-27T23:15:08.209Z,59.32
2018-03-27T23:17:36.018Z,59.32
2018-03-27T23:20:03.636Z,59.22
2018-03-27T23:22:31.265Z,59.37
2018-03-27T23:24:58.875Z,59.15
2018-03-27T23:27:26.463Z,59.47
2018-03-27T23:29:54.088Z,59.69
2018-03-27T23:32:21.675Z,59.77
2018-03-27T23:34:49.656Z,59.26
2018-03-27T23:37:17.255Z,59.62
2018-03-27T23:39:44.856Z,59.56
2018-03-27T23:42:12.471Z,59.64
2018-03-27T23:44:40.073Z,59.82
2018-03-27T23:47:07.714Z,60.33
2018-03-27T23:49:35.323Z,61.01
2018-03-27T23:52:03.186Z,61.12
2018-03-27T23:54:30.788Z,61.47
2018-03-27T23:56:58.381Z,61.31
2018-03-27T23:59:26.008Z,61.92
